McClean, Nebraska
Current Conditions -  °F | °C
As of 11:35 PM on Saturday 22 Nov 2014 (Local Time) from KLCG Reporting Station
Overcast Overcast  
Wind Chill: 52°   Ceiling: 1000
Heat Index: 52°   Visibility: 10mi
Dew Point: 49°   Wind: 12mph
Humidity: 90%   Direction: 200°SSW
Pressure: 29.5"   Gusts: NA
Location:  42.395°N, 97.4752°W
Report Text: KLCG 230535Z AUTO 20010KT 10SM OVC010 11/10 A2950 RMK AO2 T01120096
Loading
Personal Weather Stations






























Interactive Weather Map New forecast layout! Learn more

10-Day Weather Forecast

Advertisements
Track Severe Weather on mobile